sensor_id;sensor_type;location;lat;lon;timestamp;P1;durP1;ratioP1;P2;durP2;ratioP2
10699;SDS011;5401;41.986;21.452;2023-02-28T00:01:20;21.70;;;16.03;;
10699;SDS011;5401;41.986;21.452;2023-02-28T00:03:50;24.23;;;16.37;;
10699;SDS011;5401;41.986;21.452;2023-02-28T00:06:18;21.80;;;16.33;;
10699;SDS011;5401;41.986;21.452;2023-02-28T00:08:46;21.50;;;16.03;;
10699;SDS011;5401;41.986;21.452;2023-02-28T00:11:15;20.60;;;15.17;;
10699;SDS011;5401;41.986;21.452;2023-02-28T00:13:43;22.80;;;16.00;;
10699;SDS011;5401;41.986;21.452;2023-02-28T00:16:13;23.57;;;16.93;;
10699;SDS011;5401;41.986;21.452;2023-02-28T00:18:43;25.97;;;15.57;;
10699;SDS011;5401;41.986;21.452;2023-02-28T00:21:12;23.27;;;15.97;;
10699;SDS011;5401;41.986;21.452;2023-02-28T00:23:40;24.67;;;15.10;;
10699;SDS011;5401;41.986;21.452;2023-02-28T00:26:08;23.07;;;16.47;;
10699;SDS011;5401;41.986;21.452;2023-02-28T00:28:35;25.53;;;16.70;;
10699;SDS011;5401;41.986;21.452;2023-02-28T00:31:03;23.20;;;15.07;;
10699;SDS011;5401;41.986;21.452;2023-02-28T00:33:31;21.90;;;15.50;;
10699;SDS011;5401;41.986;21.452;2023-02-28T00:36:03;25.67;;;16.93;;
10699;SDS011;5401;41.986;21.452;2023-02-28T00:38:33;26.30;;;16.00;;
10699;SDS011;5401;41.986;21.452;2023-02-28T00:41:01;25.63;;;16.07;;
10699;SDS011;5401;41.986;21.452;2023-02-28T00:43:31;24.60;;;15.93;;
10699;SDS011;5401;41.986;21.452;2023-02-28T00:46:00;24.13;;;16.57;;
10699;SDS011;5401;41.986;21.452;2023-02-28T00:48:27;22.60;;;15.73;;
10699;SDS011;5401;41.986;21.452;2023-02-28T00:50:55;22.57;;;16.10;;
10699;SDS011;5401;41.986;21.452;2023-02-28T00:53:23;26.40;;;16.30;;
10699;SDS011;5401;41.986;21.452;2023-02-28T00:55:52;24.77;;;15.83;;
10699;SDS011;5401;41.986;21.452;2023-02-28T00:58:19;22.50;;;15.60;;
10699;SDS011;5401;41.986;21.452;2023-02-28T01:00:47;26.23;;;15.77;;
10699;SDS011;5401;41.986;21.452;2023-02-28T01:03:16;21.50;;;15.20;;
10699;SDS011;5401;41.986;21.452;2023-02-28T01:05:45;23.37;;;16.67;;
10699;SDS011;5401;41.986;21.452;2023-02-28T01:08:13;22.77;;;14.67;;
10699;SDS011;5401;41.986;21.452;2023-02-28T01:10:41;22.63;;;16.23;;
10699;SDS011;5401;41.986;21.452;2023-02-28T01:13:12;23.47;;;15.67;;
10699;SDS011;5401;41.986;21.452;2023-02-28T01:15:40;23.40;;;15.70;;
10699;SDS011;5401;41.986;21.452;2023-02-28T01:18:12;25.07;;;15.77;;
10699;SDS011;5401;41.986;21.452;2023-02-28T01:20:39;22.33;;;15.53;;
10699;SDS011;5401;41.986;21.452;2023-02-28T01:23:07;22.53;;;15.87;;
10699;SDS011;5401;41.986;21.452;2023-02-28T01:25:35;24.37;;;15.30;;
10699;SDS011;5401;41.986;21.452;2023-02-28T01:28:03;20.70;;;15.10;;
10699;SDS011;5401;41.986;21.452;2023-02-28T01:30:32;23.07;;;16.03;;
10699;SDS011;5401;41.986;21.452;2023-02-28T01:33:00;24.30;;;16.30;;
10699;SDS011;5401;41.986;21.452;2023-02-28T01:35:28;20.97;;;15.30;;
10699;SDS011;5401;41.986;21.452;2023-02-28T01:37:58;24.53;;;15.97;;
10699;SDS011;5401;41.986;21.452;2023-02-28T01:40:26;26.07;;;16.63;;
10699;SDS011;5401;41.986;21.452;2023-02-28T01:42:54;22.20;;;15.37;;
10699;SDS011;5401;41.986;21.452;2023-02-28T01:45:23;25.07;;;16.70;;
10699;SDS011;5401;41.986;21.452;2023-02-28T01:47:55;24.70;;;16.17;;
10699;SDS011;5401;41.986;21.452;2023-02-28T01:50:28;24.70;;;15.83;;
10699;SDS011;5401;41.986;21.452;2023-02-28T01:53:00;23.33;;;16.20;;
10699;SDS011;5401;41.986;21.452;2023-02-28T01:55:31;23.03;;;16.30;;
10699;SDS011;5401;41.986;21.452;2023-02-28T01:58:00;27.20;;;17.17;;
10699;SDS011;5401;41.986;21.452;2023-02-28T02:00:31;24.20;;;16.33;;
10699;SDS011;5401;41.986;21.452;2023-02-28T02:03:04;23.23;;;16.90;;
10699;SDS011;5401;41.986;21.452;2023-02-28T02:05:36;21.83;;;16.43;;
10699;SDS011;5401;41.986;21.452;2023-02-28T02:08:05;27.60;;;17.67;;
10699;SDS011;5401;41.986;21.452;2023-02-28T02:10:35;25.63;;;16.87;;
10699;SDS011;5401;41.986;21.452;2023-02-28T02:16:16;26.03;;;17.17;;
10699;SDS011;5401;41.986;21.452;2023-02-28T02:18:55;23.53;;;17.03;;
10699;SDS011;5401;41.986;21.452;2023-02-28T02:30:43;27.37;;;17.43;;
10699;SDS011;5401;41.986;21.452;2023-02-28T02:33:28;29.40;;;17.77;;
10699;SDS011;5401;41.986;21.452;2023-02-28T02:36:21;24.47;;;17.70;;
10699;SDS011;5401;41.986;21.452;2023-02-28T02:38:52;24.87;;;16.60;;
10699;SDS011;5401;41.986;21.452;2023-02-28T02:41:27;22.37;;;16.23;;
10699;SDS011;5401;41.986;21.452;2023-02-28T02:44:07;25.50;;;17.20;;
10699;SDS011;5401;41.986;21.452;2023-02-28T02:46:40;24.27;;;16.87;;
10699;SDS011;5401;41.986;21.452;2023-02-28T02:49:12;25.03;;;17.10;;
10699;SDS011;5401;41.986;21.452;2023-02-28T02:51:45;26.63;;;17.87;;
10699;SDS011;5401;41.986;21.452;2023-02-28T02:54:15;23.23;;;16.40;;
10699;SDS011;5401;41.986;21.452;2023-02-28T02:56:47;24.17;;;17.07;;
10699;SDS011;5401;41.986;21.452;2023-02-28T02:59:18;26.73;;;17.70;;
10699;SDS011;5401;41.986;21.452;2023-02-28T03:01:50;26.10;;;17.90;;
10699;SDS011;5401;41.986;21.452;2023-02-28T03:04:22;24.57;;;17.37;;
10699;SDS011;5401;41.986;21.452;2023-02-28T03:06:53;27.90;;;18.60;;
10699;SDS011;5401;41.986;21.452;2023-02-28T03:09:21;31.10;;;19.27;;
10699;SDS011;5401;41.986;21.452;2023-02-28T03:11:49;25.77;;;18.77;;
10699;SDS011;5401;41.986;21.452;2023-02-28T03:14:25;26.17;;;18.87;;
10699;SDS011;5401;41.986;21.452;2023-02-28T03:17:05;24.33;;;17.73;;
10699;SDS011;5401;41.986;21.452;2023-02-28T03:19:47;28.57;;;19.90;;
10699;SDS011;5401;41.986;21.452;2023-02-28T03:22:37;27.40;;;17.80;;
10699;SDS011;5401;41.986;21.452;2023-02-28T03:25:17;27.73;;;18.80;;
10699;SDS011;5401;41.986;21.452;2023-02-28T03:28:00;28.63;;;18.30;;
10699;SDS011;5401;41.986;21.452;2023-02-28T03:30:34;27.13;;;18.90;;
10699;SDS011;5401;41.986;21.452;2023-02-28T03:33:09;27.00;;;17.73;;
10699;SDS011;5401;41.986;21.452;2023-02-28T03:35:42;27.77;;;18.67;;
10699;SDS011;5401;41.986;21.452;2023-02-28T03:38:16;25.77;;;17.97;;
10699;SDS011;5401;41.986;21.452;2023-02-28T03:40:49;26.80;;;18.80;;
10699;SDS011;5401;41.986;21.452;2023-02-28T03:43:23;26.37;;;18.27;;
10699;SDS011;5401;41.986;21.452;2023-02-28T03:45:55;30.53;;;18.37;;
10699;SDS011;5401;41.986;21.452;2023-02-28T03:48:25;25.63;;;18.43;;
10699;SDS011;5401;41.986;21.452;2023-02-28T03:50:58;25.97;;;16.93;;
10699;SDS011;5401;41.986;21.452;2023-02-28T03:53:30;26.87;;;17.73;;
10699;SDS011;5401;41.986;21.452;2023-02-28T03:56:03;26.80;;;17.83;;
10699;SDS011;5401;41.986;21.452;2023-02-28T03:58:37;28.93;;;18.70;;
10699;SDS011;5401;41.986;21.452;2023-02-28T04:01:11;24.67;;;17.00;;
10699;SDS011;5401;41.986;21.452;2023-02-28T04:03:42;26.30;;;18.57;;
10699;SDS011;5401;41.986;21.452;2023-02-28T04:06:13;27.13;;;18.43;;
10699;SDS011;5401;41.986;21.452;2023-02-28T04:08:44;27.03;;;18.20;;
10699;SDS011;5401;41.986;21.452;2023-02-28T04:11:16;26.13;;;17.73;;
10699;SDS011;5401;41.986;21.452;2023-02-28T04:13:50;26.40;;;18.20;;
10699;SDS011;5401;41.986;21.452;2023-02-28T04:16:17;28.77;;;18.97;;
10699;SDS011;5401;41.986;21.452;2023-02-28T04:18:46;26.20;;;17.27;;
10699;SDS011;5401;41.986;21.452;2023-02-28T04:21:13;29.47;;;19.40;;
10699;SDS011;5401;41.986;21.452;2023-02-28T04:23:41;26.33;;;17.47;;
10699;SDS011;5401;41.986;21.452;2023-02-28T04:26:10;25.70;;;18.37;;
10699;SDS011;5401;41.986;21.452;2023-02-28T04:28:37;26.67;;;19.03;;
10699;SDS011;5401;41.986;21.452;2023-02-28T04:31:05;27.53;;;18.37;;
10699;SDS011;5401;41.986;21.452;2023-02-28T04:33:32;26.07;;;17.47;;
10699;SDS011;5401;41.986;21.452;2023-02-28T04:36:00;28.93;;;19.00;;
10699;SDS011;5401;41.986;21.452;2023-02-28T04:38:29;28.20;;;17.70;;
10699;SDS011;5401;41.986;21.452;2023-02-28T04:40:59;29.73;;;18.97;;
10699;SDS011;5401;41.986;21.452;2023-02-28T04:43:28;31.20;;;17.80;;
10699;SDS011;5401;41.986;21.452;2023-02-28T04:45:56;29.47;;;18.03;;
10699;SDS011;5401;41.986;21.452;2023-02-28T04:48:26;26.30;;;17.17;;
10699;SDS011;5401;41.986;21.452;2023-02-28T04:50:55;26.87;;;17.53;;
10699;SDS011;5401;41.986;21.452;2023-02-28T04:53:27;24.83;;;17.27;;
10699;SDS011;5401;41.986;21.452;2023-02-28T04:55:54;25.73;;;17.77;;
10699;SDS011;5401;41.986;21.452;2023-02-28T04:58:22;26.63;;;18.07;;
10699;SDS011;5401;41.986;21.452;2023-02-28T05:00:51;28.33;;;18.60;;
10699;SDS011;5401;41.986;21.452;2023-02-28T05:03:20;29.77;;;18.27;;
10699;SDS011;5401;41.986;21.452;2023-02-28T05:05:48;24.23;;;16.67;;
10699;SDS011;5401;41.986;21.452;2023-02-28T05:08:15;29.90;;;18.60;;
10699;SDS011;5401;41.986;21.452;2023-02-28T05:10:43;26.77;;;18.73;;
10699;SDS011;5401;41.986;21.452;2023-02-28T05:13:11;25.33;;;17.17;;
10699;SDS011;5401;41.986;21.452;2023-02-28T05:15:39;26.60;;;17.57;;
10699;SDS011;5401;41.986;21.452;2023-02-28T05:18:09;23.67;;;17.10;;
10699;SDS011;5401;41.986;21.452;2023-02-28T05:20:36;28.63;;;18.57;;
10699;SDS011;5401;41.986;21.452;2023-02-28T05:23:07;29.27;;;17.90;;
10699;SDS011;5401;41.986;21.452;2023-02-28T05:25:38;27.00;;;17.70;;
10699;SDS011;5401;41.986;21.452;2023-02-28T05:28:06;31.10;;;18.37;;
10699;SDS011;5401;41.986;21.452;2023-02-28T05:30:34;26.07;;;18.53;;
10699;SDS011;5401;41.986;21.452;2023-02-28T05:33:02;26.20;;;17.47;;
10699;SDS011;5401;41.986;21.452;2023-02-28T05:35:31;24.17;;;17.00;;
10699;SDS011;5401;41.986;21.452;2023-02-28T05:37:58;25.63;;;16.53;;
10699;SDS011;5401;41.986;21.452;2023-02-28T05:40:26;25.00;;;16.50;;
10699;SDS011;5401;41.986;21.452;2023-02-28T05:42:54;27.53;;;17.87;;
10699;SDS011;5401;41.986;21.452;2023-02-28T05:45:21;27.37;;;18.67;;
10699;SDS011;5401;41.986;21.452;2023-02-28T05:47:49;27.20;;;17.67;;
10699;SDS011;5401;41.986;21.452;2023-02-28T05:50:26;25.47;;;17.13;;
10699;SDS011;5401;41.986;21.452;2023-02-28T05:52:55;29.07;;;17.10;;
10699;SDS011;5401;41.986;21.452;2023-02-28T05:55:23;23.77;;;16.73;;
10699;SDS011;5401;41.986;21.452;2023-02-28T05:57:50;26.47;;;16.80;;
10699;SDS011;5401;41.986;21.452;2023-02-28T06:00:20;28.45;;;15.55;;
10699;SDS011;5401;41.986;21.452;2023-02-28T06:02:48;25.93;;;17.53;;
10699;SDS011;5401;41.986;21.452;2023-02-28T06:05:17;25.87;;;17.23;;
10699;SDS011;5401;41.986;21.452;2023-02-28T06:07:45;27.50;;;17.77;;
10699;SDS011;5401;41.986;21.452;2023-02-28T06:10:14;27.20;;;17.77;;
10699;SDS011;5401;41.986;21.452;2023-02-28T06:12:41;26.33;;;17.70;;
10699;SDS011;5401;41.986;21.452;2023-02-28T06:15:10;29.50;;;16.93;;
10699;SDS011;5401;41.986;21.452;2023-02-28T06:17:39;23.80;;;16.73;;
10699;SDS011;5401;41.986;21.452;2023-02-28T06:20:08;28.77;;;17.10;;
10699;SDS011;5401;41.986;21.452;2023-02-28T06:22:38;28.30;;;17.27;;
10699;SDS011;5401;41.986;21.452;2023-02-28T06:25:06;26.27;;;16.70;;
10699;SDS011;5401;41.986;21.452;2023-02-28T06:27:36;29.07;;;18.10;;
10699;SDS011;5401;41.986;21.452;2023-02-28T06:30:04;29.03;;;17.47;;
10699;SDS011;5401;41.986;21.452;2023-02-28T06:32:32;24.83;;;17.77;;
10699;SDS011;5401;41.986;21.452;2023-02-28T06:35:00;29.30;;;17.63;;
10699;SDS011;5401;41.986;21.452;2023-02-28T06:37:27;32.50;;;17.50;;
10699;SDS011;5401;41.986;21.452;2023-02-28T06:39:55;28.67;;;17.57;;
10699;SDS011;5401;41.986;21.452;2023-02-28T06:42:23;27.27;;;18.80;;
10699;SDS011;5401;41.986;21.452;2023-02-28T06:44:56;26.97;;;17.93;;
10699;SDS011;5401;41.986;21.452;2023-02-28T06:47:23;31.83;;;19.33;;
10699;SDS011;5401;41.986;21.452;2023-02-28T06:49:51;27.00;;;18.90;;
10699;SDS011;5401;41.986;21.452;2023-02-28T06:52:19;34.80;;;19.90;;
10699;SDS011;5401;41.986;21.452;2023-02-28T06:54:47;29.23;;;19.20;;
10699;SDS011;5401;41.986;21.452;2023-02-28T06:57:25;27.00;;;18.90;;
10699;SDS011;5401;41.986;21.452;2023-02-28T06:59:58;30.00;;;18.67;;
10699;SDS011;5401;41.986;21.452;2023-02-28T07:02:26;27.70;;;18.00;;
10699;SDS011;5401;41.986;21.452;2023-02-28T07:04:54;26.00;;;18.97;;
10699;SDS011;5401;41.986;21.452;2023-02-28T07:07:22;31.10;;;19.17;;
10699;SDS011;5401;41.986;21.452;2023-02-28T07:09:49;31.37;;;19.40;;
10699;SDS011;5401;41.986;21.452;2023-02-28T07:12:18;31.33;;;19.40;;
10699;SDS011;5401;41.986;21.452;2023-02-28T07:14:46;33.63;;;19.70;;
10699;SDS011;5401;41.986;21.452;2023-02-28T07:17:15;31.77;;;20.10;;
10699;SDS011;5401;41.986;21.452;2023-02-28T07:19:43;29.57;;;19.40;;
10699;SDS011;5401;41.986;21.452;2023-02-28T07:22:11;35.53;;;20.63;;
10699;SDS011;5401;41.986;21.452;2023-02-28T07:24:51;34.67;;;19.73;;
10699;SDS011;5401;41.986;21.452;2023-02-28T07:27:38;38.03;;;21.30;;
10699;SDS011;5401;41.986;21.452;2023-02-28T07:30:21;39.37;;;21.80;;
10699;SDS011;5401;41.986;21.452;2023-02-28T07:32:50;35.60;;;20.67;;
10699;SDS011;5401;41.986;21.452;2023-02-28T07:35:20;33.13;;;20.77;;
10699;SDS011;5401;41.986;21.452;2023-02-28T07:37:48;33.93;;;21.93;;
10699;SDS011;5401;41.986;21.452;2023-02-28T07:40:17;34.50;;;21.97;;
10699;SDS011;5401;41.986;21.452;2023-02-28T07:42:45;39.07;;;23.00;;
10699;SDS011;5401;41.986;21.452;2023-02-28T07:45:13;38.13;;;20.50;;
10699;SDS011;5401;41.986;21.452;2023-02-28T07:47:41;37.60;;;21.73;;
10699;SDS011;5401;41.986;21.452;2023-02-28T07:50:12;33.73;;;21.63;;
10699;SDS011;5401;41.986;21.452;2023-02-28T07:52:41;30.63;;;19.93;;
10699;SDS011;5401;41.986;21.452;2023-02-28T07:55:10;31.70;;;21.10;;
10699;SDS011;5401;41.986;21.452;2023-02-28T07:57:40;40.27;;;23.00;;
10699;SDS011;5401;41.986;21.452;2023-02-28T08:00:08;39.80;;;21.73;;
10699;SDS011;5401;41.986;21.452;2023-02-28T08:02:38;39.70;;;21.63;;
10699;SDS011;5401;41.986;21.452;2023-02-28T08:05:06;39.33;;;20.47;;
10699;SDS011;5401;41.986;21.452;2023-02-28T08:07:36;36.37;;;21.77;;
10699;SDS011;5401;41.986;21.452;2023-02-28T08:10:14;38.67;;;22.50;;
10699;SDS011;5401;41.986;21.452;2023-02-28T08:12:48;35.60;;;21.90;;
10699;SDS011;5401;41.986;21.452;2023-02-28T08:15:17;38.87;;;23.17;;
10699;SDS011;5401;41.986;21.452;2023-02-28T08:18:10;39.60;;;23.27;;
10699;SDS011;5401;41.986;21.452;2023-02-28T08:20:47;39.40;;;24.13;;
10699;SDS011;5401;41.986;21.452;2023-02-28T08:23:34;38.90;;;23.80;;
10699;SDS011;5401;41.986;21.452;2023-02-28T08:26:25;39.13;;;23.67;;
10699;SDS011;5401;41.986;21.452;2023-02-28T08:28:57;34.00;;;21.83;;
10699;SDS011;5401;41.986;21.452;2023-02-28T08:31:32;40.00;;;23.87;;
10699;SDS011;5401;41.986;21.452;2023-02-28T08:34:04;34.37;;;22.13;;
10699;SDS011;5401;41.986;21.452;2023-02-28T08:36:39;39.13;;;24.43;;
10699;SDS011;5401;41.986;21.452;2023-02-28T08:39:10;42.60;;;24.57;;
10699;SDS011;5401;41.986;21.452;2023-02-28T08:41:46;37.00;;;24.47;;
10699;SDS011;5401;41.986;21.452;2023-02-28T08:44:13;40.10;;;24.93;;
10699;SDS011;5401;41.986;21.452;2023-02-28T08:46:41;42.93;;;27.70;;
10699;SDS011;5401;41.986;21.452;2023-02-28T08:49:09;38.90;;;24.50;;
10699;SDS011;5401;41.986;21.452;2023-02-28T08:51:38;40.60;;;24.10;;
10699;SDS011;5401;41.986;21.452;2023-02-28T08:54:05;41.03;;;24.87;;
10699;SDS011;5401;41.986;21.452;2023-02-28T08:56:34;36.77;;;24.27;;
10699;SDS011;5401;41.986;21.452;2023-02-28T08:59:02;36.33;;;22.77;;
10699;SDS011;5401;41.986;21.452;2023-02-28T09:01:30;36.03;;;24.60;;
10699;SDS011;5401;41.986;21.452;2023-02-28T09:03:58;42.97;;;24.47;;
10699;SDS011;5401;41.986;21.452;2023-02-28T09:06:27;42.00;;;24.00;;
10699;SDS011;5401;41.986;21.452;2023-02-28T09:08:56;43.17;;;23.40;;
10699;SDS011;5401;41.986;21.452;2023-02-28T09:11:27;35.60;;;23.50;;
10699;SDS011;5401;41.986;21.452;2023-02-28T09:13:57;37.90;;;25.10;;
10699;SDS011;5401;41.986;21.452;2023-02-28T09:16:25;43.53;;;25.83;;
10699;SDS011;5401;41.986;21.452;2023-02-28T09:18:52;43.53;;;25.63;;
10699;SDS011;5401;41.986;21.452;2023-02-28T09:21:20;43.60;;;24.57;;
10699;SDS011;5401;41.986;21.452;2023-02-28T09:23:49;42.17;;;25.00;;
10699;SDS011;5401;41.986;21.452;2023-02-28T09:26:19;42.27;;;26.27;;
10699;SDS011;5401;41.986;21.452;2023-02-28T09:28:53;52.95;;;26.50;;
10699;SDS011;5401;41.986;21.452;2023-02-28T09:31:25;46.90;;;26.80;;
10699;SDS011;5401;41.986;21.452;2023-02-28T09:33:56;41.33;;;25.53;;
10699;SDS011;5401;41.986;21.452;2023-02-28T09:36:26;40.67;;;27.90;;
10699;SDS011;5401;41.986;21.452;2023-02-28T09:38:55;39.80;;;25.80;;
10699;SDS011;5401;41.986;21.452;2023-02-28T09:41:23;52.70;;;27.23;;
10699;SDS011;5401;41.986;21.452;2023-02-28T09:43:57;41.97;;;26.17;;
10699;SDS011;5401;41.986;21.452;2023-02-28T09:46:31;41.97;;;27.13;;
10699;SDS011;5401;41.986;21.452;2023-02-28T09:49:02;40.90;;;26.23;;
10699;SDS011;5401;41.986;21.452;2023-02-28T09:51:36;40.53;;;27.80;;
10699;SDS011;5401;41.986;21.452;2023-02-28T09:54:12;50.67;;;26.20;;
10699;SDS011;5401;41.986;21.452;2023-02-28T09:56:45;44.87;;;26.73;;
10699;SDS011;5401;41.986;21.452;2023-02-28T09:59:21;43.93;;;27.67;;
10699;SDS011;5401;41.986;21.452;2023-02-28T10:02:00;42.60;;;26.67;;
10699;SDS011;5401;41.986;21.452;2023-02-28T10:04:40;44.73;;;26.27;;
10699;SDS011;5401;41.986;21.452;2023-02-28T10:07:19;45.60;;;27.33;;
10699;SDS011;5401;41.986;21.452;2023-02-28T10:10:06;43.13;;;27.67;;
10699;SDS011;5401;41.986;21.452;2023-02-28T10:12:42;44.10;;;27.10;;
10699;SDS011;5401;41.986;21.452;2023-02-28T10:15:13;46.13;;;27.80;;
10699;SDS011;5401;41.986;21.452;2023-02-28T10:17:44;41.13;;;25.83;;
10699;SDS011;5401;41.986;21.452;2023-02-28T10:20:17;45.23;;;26.47;;
10699;SDS011;5401;41.986;21.452;2023-02-28T10:22:57;46.83;;;28.50;;
10699;SDS011;5401;41.986;21.452;2023-02-28T10:25:33;46.57;;;27.03;;
10699;SDS011;5401;41.986;21.452;2023-02-28T10:28:05;42.40;;;27.63;;
10699;SDS011;5401;41.986;21.452;2023-02-28T10:30:38;47.67;;;26.73;;
10699;SDS011;5401;41.986;21.452;2023-02-28T10:33:13;43.73;;;28.07;;
10699;SDS011;5401;41.986;21.452;2023-02-28T10:35:46;44.10;;;28.90;;
10699;SDS011;5401;41.986;21.452;2023-02-28T10:38:15;45.83;;;28.33;;
10699;SDS011;5401;41.986;21.452;2023-02-28T10:40:44;42.43;;;28.57;;
10699;SDS011;5401;41.986;21.452;2023-02-28T10:43:19;49.53;;;28.17;;
10699;SDS011;5401;41.986;21.452;2023-02-28T10:45:52;44.37;;;29.27;;
10699;SDS011;5401;41.986;21.452;2023-02-28T10:48:29;40.17;;;27.03;;
10699;SDS011;5401;41.986;21.452;2023-02-28T10:51:00;42.50;;;27.80;;
10699;SDS011;5401;41.986;21.452;2023-02-28T10:53:33;44.07;;;29.60;;
10699;SDS011;5401;41.986;21.452;2023-02-28T10:56:05;48.27;;;28.30;;
10699;SDS011;5401;41.986;21.452;2023-02-28T10:58:48;46.87;;;28.67;;
10699;SDS011;5401;41.986;21.452;2023-02-28T11:01:18;55.13;;;29.27;;
10699;SDS011;5401;41.986;21.452;2023-02-28T11:03:53;45.43;;;29.60;;
10699;SDS011;5401;41.986;21.452;2023-02-28T11:06:23;48.63;;;28.77;;
10699;SDS011;5401;41.986;21.452;2023-02-28T11:08:54;47.93;;;29.23;;
10699;SDS011;5401;41.986;21.452;2023-02-28T11:11:23;43.23;;;29.23;;
10699;SDS011;5401;41.986;21.452;2023-02-28T11:13:55;50.90;;;28.63;;
10699;SDS011;5401;41.986;21.452;2023-02-28T11:16:33;48.27;;;30.53;;
10699;SDS011;5401;41.986;21.452;2023-02-28T11:19:04;44.27;;;27.33;;
10699;SDS011;5401;41.986;21.452;2023-02-28T11:21:45;44.07;;;27.50;;
10699;SDS011;5401;41.986;21.452;2023-02-28T11:24:21;42.77;;;27.47;;
10699;SDS011;5401;41.986;21.452;2023-02-28T11:26:52;47.97;;;27.07;;
10699;SDS011;5401;41.986;21.452;2023-02-28T11:29:21;45.00;;;29.30;;
10699;SDS011;5401;41.986;21.452;2023-02-28T11:32:04;42.43;;;28.03;;
10699;SDS011;5401;41.986;21.452;2023-02-28T11:34:42;39.77;;;27.13;;
10699;SDS011;5401;41.986;21.452;2023-02-28T11:37:11;38.73;;;27.83;;
10699;SDS011;5401;41.986;21.452;2023-02-28T11:39:41;41.83;;;28.27;;
10699;SDS011;5401;41.986;21.452;2023-02-28T11:45:15;44.43;;;28.13;;
10699;SDS011;5401;41.986;21.452;2023-02-28T11:47:53;39.27;;;26.90;;
10699;SDS011;5401;41.986;21.452;2023-02-28T11:50:38;41.97;;;27.80;;
10699;SDS011;5401;41.986;21.452;2023-02-28T11:53:16;48.27;;;28.97;;
10699;SDS011;5401;41.986;21.452;2023-02-28T11:55:49;46.47;;;27.23;;
10699;SDS011;5401;41.986;21.452;2023-02-28T11:58:27;41.57;;;27.83;;
10699;SDS011;5401;41.986;21.452;2023-02-28T12:01:05;45.93;;;27.40;;
10699;SDS011;5401;41.986;21.452;2023-02-28T12:03:54;41.37;;;27.57;;
10699;SDS011;5401;41.986;21.452;2023-02-28T12:06:33;38.90;;;27.77;;
10699;SDS011;5401;41.986;21.452;2023-02-28T12:09:21;38.97;;;26.27;;
10699;SDS011;5401;41.986;21.452;2023-02-28T12:12:15;44.43;;;27.37;;
10699;SDS011;5401;41.986;21.452;2023-02-28T12:15:01;35.97;;;23.97;;
10699;SDS011;5401;41.986;21.452;2023-02-28T12:17:47;51.60;;;25.87;;
10699;SDS011;5401;41.986;21.452;2023-02-28T12:20:26;40.23;;;24.53;;
10699;SDS011;5401;41.986;21.452;2023-02-28T12:23:08;39.50;;;25.00;;
10699;SDS011;5401;41.986;21.452;2023-02-28T12:25:50;37.90;;;25.30;;
10699;SDS011;5401;41.986;21.452;2023-02-28T12:28:29;46.97;;;27.07;;
10699;SDS011;5401;41.986;21.452;2023-02-28T12:31:01;39.97;;;25.03;;
10699;SDS011;5401;41.986;21.452;2023-02-28T12:33:34;40.53;;;25.20;;
10699;SDS011;5401;41.986;21.452;2023-02-28T12:36:09;32.80;;;20.00;;
10699;SDS011;5401;41.986;21.452;2023-02-28T12:38:43;37.00;;;21.63;;
10699;SDS011;5401;41.986;21.452;2023-02-28T12:41:15;32.23;;;22.00;;
10699;SDS011;5401;41.986;21.452;2023-02-28T12:43:48;36.20;;;21.73;;
10699;SDS011;5401;41.986;21.452;2023-02-28T12:46:23;41.10;;;22.07;;
10699;SDS011;5401;41.986;21.452;2023-02-28T12:48:55;30.93;;;20.23;;
10699;SDS011;5401;41.986;21.452;2023-02-28T12:51:25;33.03;;;19.27;;
10699;SDS011;5401;41.986;21.452;2023-02-28T12:54:00;41.43;;;20.90;;
10699;SDS011;5401;41.986;21.452;2023-02-28T12:56:38;34.93;;;20.10;;
10699;SDS011;5401;41.986;21.452;2023-02-28T12:59:19;30.70;;;19.37;;
10699;SDS011;5401;41.986;21.452;2023-02-28T13:01:57;33.87;;;20.23;;
10699;SDS011;5401;41.986;21.452;2023-02-28T13:07:49;34.80;;;18.53;;
10699;SDS011;5401;41.986;21.452;2023-02-28T13:10:41;35.67;;;19.47;;
10699;SDS011;5401;41.986;21.452;2023-02-28T13:13:17;32.50;;;18.47;;
10699;SDS011;5401;41.986;21.452;2023-02-28T13:15:57;37.30;;;20.10;;
10699;SDS011;5401;41.986;21.452;2023-02-28T13:18:33;40.07;;;19.97;;
10699;SDS011;5401;41.986;21.452;2023-02-28T13:21:06;35.57;;;20.53;;
10699;SDS011;5401;41.986;21.452;2023-02-28T13:29:59;33.20;;;20.43;;
10699;SDS011;5401;41.986;21.452;2023-02-28T13:32:28;32.57;;;19.07;;
10699;SDS011;5401;41.986;21.452;2023-02-28T13:35:14;36.37;;;19.07;;
10699;SDS011;5401;41.986;21.452;2023-02-28T13:38:09;28.60;;;17.47;;
10699;SDS011;5401;41.986;21.452;2023-02-28T13:40:48;28.80;;;17.80;;
10699;SDS011;5401;41.986;21.452;2023-02-28T13:43:16;38.43;;;18.70;;
10699;SDS011;5401;41.986;21.452;2023-02-28T13:48:40;36.07;;;18.40;;
10699;SDS011;5401;41.986;21.452;2023-02-28T13:54:13;29.73;;;17.73;;
10699;SDS011;5401;41.986;21.452;2023-02-28T13:56:50;31.83;;;17.90;;
10699;SDS011;5401;41.986;21.452;2023-02-28T13:59:25;33.57;;;18.30;;
10699;SDS011;5401;41.986;21.452;2023-02-28T14:02:08;32.17;;;18.20;;
10699;SDS011;5401;41.986;21.452;2023-02-28T14:05:00;37.57;;;19.03;;
10699;SDS011;5401;41.986;21.452;2023-02-28T14:07:33;35.70;;;18.73;;
10699;SDS011;5401;41.986;21.452;2023-02-28T14:10:15;34.03;;;19.10;;
10699;SDS011;5401;41.986;21.452;2023-02-28T14:12:54;36.43;;;17.97;;
10699;SDS011;5401;41.986;21.452;2023-02-28T14:18:25;32.37;;;19.37;;
10699;SDS011;5401;41.986;21.452;2023-02-28T14:21:14;31.80;;;19.67;;
10699;SDS011;5401;41.986;21.452;2023-02-28T14:27:06;35.33;;;19.07;;
10699;SDS011;5401;41.986;21.452;2023-02-28T14:33:13;30.30;;;18.93;;
10699;SDS011;5401;41.986;21.452;2023-02-28T14:35:53;37.00;;;19.73;;
10699;SDS011;5401;41.986;21.452;2023-02-28T14:38:29;32.50;;;18.47;;
10699;SDS011;5401;41.986;21.452;2023-02-28T14:41:00;37.33;;;19.20;;
10699;SDS011;5401;41.986;21.452;2023-02-28T14:43:31;31.53;;;19.87;;
10699;SDS011;5401;41.986;21.452;2023-02-28T14:46:00;35.97;;;20.10;;
10699;SDS011;5401;41.986;21.452;2023-02-28T14:48:29;30.90;;;20.50;;
10699;SDS011;5401;41.986;21.452;2023-02-28T14:50:59;38.20;;;19.63;;
10699;SDS011;5401;41.986;21.452;2023-02-28T14:53:28;50.80;;;29.63;;
10699;SDS011;5401;41.986;21.452;2023-02-28T14:56:02;41.20;;;20.37;;
10699;SDS011;5401;41.986;21.452;2023-02-28T14:58:31;32.83;;;20.60;;
10699;SDS011;5401;41.986;21.452;2023-02-28T15:01:01;31.47;;;19.60;;
10699;SDS011;5401;41.986;21.452;2023-02-28T15:03:30;38.47;;;22.03;;
10699;SDS011;5401;41.986;21.452;2023-02-28T15:06:02;45.63;;;22.17;;
10699;SDS011;5401;41.986;21.452;2023-02-28T15:08:31;33.63;;;21.03;;
10699;SDS011;5401;41.986;21.452;2023-02-28T15:11:02;40.17;;;23.13;;
10699;SDS011;5401;41.986;21.452;2023-02-28T15:13:35;35.17;;;21.87;;
10699;SDS011;5401;41.986;21.452;2023-02-28T15:16:05;43.57;;;21.97;;
10699;SDS011;5401;41.986;21.452;2023-02-28T15:18:40;37.13;;;20.20;;
10699;SDS011;5401;41.986;21.452;2023-02-28T15:21:15;37.50;;;20.43;;
10699;SDS011;5401;41.986;21.452;2023-02-28T15:23:45;31.77;;;20.13;;
10699;SDS011;5401;41.986;21.452;2023-02-28T15:26:19;37.60;;;21.57;;
10699;SDS011;5401;41.986;21.452;2023-02-28T15:28:49;43.33;;;20.40;;
10699;SDS011;5401;41.986;21.452;2023-02-28T15:31:21;37.47;;;21.27;;